createdAt,value
2022-12-13T00:01:37.418Z,94.92
2022-12-13T00:04:11.595Z,95.00
2022-12-13T00:06:51.454Z,95.01
2022-12-13T00:09:23.864Z,95.02
2022-12-13T00:12:02.726Z,95.07
2022-12-13T00:14:35.690Z,94.90
2022-12-13T00:17:15.760Z,95.01
2022-12-13T00:19:49.440Z,94.79
2022-12-13T00:22:29.137Z,94.96
2022-12-13T00:30:18.619Z,95.01
2022-12-13T00:32:57.737Z,95.05
2022-12-13T00:40:48.690Z,95.05
2022-12-13T00:44:12.605Z,95.07
2022-12-13T00:52:27.208Z,94.85
2022-12-13T00:55:00.443Z,94.76
2022-12-13T00:57:38.829Z,94.79
2022-12-13T01:00:13.687Z,94.54
2022-12-13T01:08:25.762Z,94.72
2022-12-13T01:11:06.062Z,94.71
2022-12-13T01:22:58.936Z,94.86
2022-12-13T01:25:33.252Z,94.75
2022-12-13T01:28:36.522Z,94.73
2022-12-13T01:31:11.683Z,94.82
2022-12-13T01:34:39.080Z,94.71
2022-12-13T01:37:11.432Z,94.72
2022-12-13T01:39:49.870Z,94.82
2022-12-13T01:42:23.444Z,94.81
2022-12-13T01:49:38.812Z,94.79
2022-12-13T01:55:29.704Z,94.51
2022-12-13T01:58:56.303Z,94.72
2022-12-13T02:14:02.586Z,94.36
2022-12-13T02:30:46.660Z,94.15
2022-12-13T02:51:37.677Z,93.96
2022-12-13T03:03:28.750Z,93.85
2022-12-13T03:07:27.324Z,93.64
2022-12-13T03:32:24.307Z,93.49
2022-12-13T03:38:23.427Z,93.28
2022-12-13T03:46:16.513Z,93.56
2022-12-13T03:48:57.886Z,93.48
2022-12-13T03:51:35.169Z,93.66
2022-12-13T03:55:04.475Z,93.49
2022-12-13T03:57:40.049Z,93.27
2022-12-13T04:01:03.908Z,93.35
2022-12-13T04:03:45.095Z,93.43
2022-12-13T04:07:22.057Z,93.31
2022-12-13T04:10:47.682Z,93.54
2022-12-13T04:17:32.654Z,93.51
2022-12-13T04:24:34.347Z,93.29
2022-12-13T04:31:15.858Z,93.24
2022-12-13T04:34:20.576Z,93.34
2022-12-13T04:50:47.262Z,93.32
2022-12-13T04:53:21.173Z,93.13
2022-12-13T04:56:00.648Z,93.22
2022-12-13T04:58:33.271Z,93.12
2022-12-13T05:02:23.433Z,93.03
2022-12-13T05:05:03.334Z,93.04
2022-12-13T05:07:35.576Z,92.96
2022-12-13T05:11:11.607Z,93.20
2022-12-13T05:14:32.897Z,93.38
2022-12-13T05:17:05.251Z,93.19
2022-12-13T05:19:38.786Z,93.07
2022-12-13T05:22:20.813Z,93.13
2022-12-13T05:25:43.195Z,93.13
2022-12-13T05:33:52.182Z,93.32
2022-12-13T05:40:20.385Z,93.19
2022-12-13T05:43:00.725Z,93.11
2022-12-13T05:45:38.748Z,93.08
2022-12-13T05:49:00.826Z,93.19
2022-12-13T05:51:40.810Z,93.22
2022-12-13T05:54:13.380Z,93.06
2022-12-13T05:56:53.557Z,93.09
2022-12-13T05:59:25.827Z,92.94
2022-12-13T06:02:05.471Z,92.79
2022-12-13T06:10:35.577Z,93.03
2022-12-13T06:13:21.901Z,92.98
2022-12-13T06:16:54.564Z,92.75
2022-12-13T06:19:33.056Z,92.88
2022-12-13T06:22:05.481Z,93.00
2022-12-13T06:24:44.407Z,92.91
2022-12-13T06:36:21.067Z,92.75
2022-12-13T06:38:53.321Z,92.60
2022-12-13T06:41:32.410Z,92.65
2022-12-13T06:44:04.711Z,92.46
2022-12-13T06:46:44.044Z,92.56
2022-12-13T06:49:16.220Z,92.72
2022-12-13T06:51:55.152Z,92.80
2022-12-13T06:54:27.374Z,92.64
2022-12-13T06:57:08.219Z,92.71
2022-12-13T06:59:41.212Z,92.51
2022-12-13T07:02:24.761Z,92.45
2022-12-13T07:05:46.825Z,92.34
2022-12-13T07:08:25.899Z,92.05
2022-12-13T07:10:58.582Z,92.29
2022-12-13T07:13:37.175Z,92.48
2022-12-13T07:16:10.707Z,92.39
2022-12-13T07:23:35.617Z,92.04
2022-12-13T07:27:16.862Z,92.15
2022-12-13T07:30:59.637Z,92.12
2022-12-13T07:38:22.163Z,92.14
2022-12-13T07:41:01.370Z,91.95
2022-12-13T07:43:34.072Z,91.72
2022-12-13T07:46:13.675Z,91.08
2022-12-13T07:48:45.945Z,91.25
2022-12-13T07:56:29.910Z,91.76
2022-12-13T07:59:02.634Z,91.71
2022-12-13T08:01:42.553Z,91.47
2022-12-13T08:04:16.956Z,90.89
2022-12-13T08:06:56.216Z,90.41
2022-12-13T08:10:13.572Z,90.56
2022-12-13T08:12:52.200Z,90.75
2022-12-13T08:15:25.680Z,90.52
2022-12-13T08:22:15.009Z,90.04
2022-12-13T08:34:31.861Z,90.30
2022-12-13T08:37:11.295Z,90.38
2022-12-13T08:44:35.275Z,90.63
2022-12-13T08:47:23.139Z,91.21
2022-12-13T08:50:47.230Z,90.58
2022-12-13T08:53:28.124Z,91.53
2022-12-13T09:00:41.204Z,88.51
2022-12-13T09:03:13.653Z,86.37
2022-12-13T09:05:48.126Z,84.10
2022-12-13T09:08:24.652Z,83.05
2022-12-13T09:11:10.439Z,83.04
2022-12-13T09:14:45.594Z,82.66
2022-12-13T09:30:43.272Z,82.55
2022-12-13T09:33:28.132Z,82.66
2022-12-13T09:45:22.735Z,82.47
2022-12-13T09:49:01.175Z,82.58
2022-12-13T09:55:55.351Z,82.59
2022-12-13T10:03:26.087Z,82.70
2022-12-13T10:10:08.244Z,83.00
2022-12-13T10:12:42.097Z,83.36
2022-12-13T10:15:25.135Z,82.84
2022-12-13T10:22:20.032Z,82.30
2022-12-13T10:30:10.886Z,81.71
2022-12-13T10:33:04.548Z,82.10
2022-12-13T10:41:32.235Z,83.22
2022-12-13T10:53:25.781Z,78.41
2022-12-13T10:56:02.135Z,78.10
2022-12-13T11:02:41.761Z,76.57
2022-12-13T11:06:43.474Z,76.75
2022-12-13T11:41:53.709Z,77.32
2022-12-13T11:53:52.938Z,77.81
2022-12-13T11:56:45.617Z,77.94
2022-12-13T12:04:31.313Z,77.13
2022-12-13T12:07:31.164Z,76.98
2022-12-13T12:11:24.727Z,77.46
2022-12-13T12:18:28.849Z,77.53
2022-12-13T12:25:37.115Z,77.90
2022-12-13T12:51:35.785Z,79.21
2022-12-13T12:58:55.080Z,78.83
2022-12-13T13:10:39.125Z,79.16
2022-12-13T13:18:34.930Z,79.14
2022-12-13T13:29:51.026Z,78.87
2022-12-13T13:42:11.402Z,79.10
2022-12-13T13:45:56.864Z,79.02
2022-12-13T13:49:12.667Z,78.82
2022-12-13T14:04:51.611Z,79.11
2022-12-13T14:17:42.197Z,79.03
2022-12-13T14:21:27.912Z,79.06
2022-12-13T14:29:17.287Z,79.54
2022-12-13T14:36:42.974Z,79.39
2022-12-13T14:40:39.154Z,79.46
2022-12-13T14:48:28.493Z,79.60
2022-12-13T14:51:03.002Z,79.54
2022-12-13T14:58:06.259Z,79.53
2022-12-13T15:00:45.961Z,79.42
2022-12-13T15:03:27.714Z,79.57
2022-12-13T15:06:03.715Z,79.43
2022-12-13T15:08:42.005Z,79.32
2022-12-13T15:11:15.122Z,79.33
2022-12-13T15:13:52.715Z,78.87
2022-12-13T15:16:30.544Z,78.58
2022-12-13T15:19:30.783Z,78.47
2022-12-13T15:22:18.876Z,78.23
2022-12-13T15:24:54.380Z,78.18
2022-12-13T15:27:48.198Z,78.32
2022-12-13T15:30:21.907Z,78.38
2022-12-13T15:33:09.573Z,78.28
2022-12-13T15:35:42.253Z,77.97
2022-12-13T15:38:28.678Z,77.86
2022-12-13T15:41:06.043Z,77.63
2022-12-13T15:43:44.861Z,77.66
2022-12-13T15:46:24.792Z,77.60
2022-12-13T15:48:58.662Z,77.34
2022-12-13T15:51:31.326Z,77.23
2022-12-13T15:54:47.484Z,77.22
2022-12-13T15:57:26.042Z,77.16
2022-12-13T16:00:29.691Z,77.05
2022-12-13T16:03:15.093Z,77.40
2022-12-13T16:08:53.486Z,76.89
2022-12-13T16:11:34.724Z,76.85
2022-12-13T16:14:48.765Z,76.88
2022-12-13T16:17:26.703Z,76.85
2022-12-13T16:20:16.384Z,76.80
2022-12-13T16:22:49.251Z,76.54
2022-12-13T16:25:23.699Z,76.89
2022-12-13T16:28:02.341Z,76.79
2022-12-13T16:33:48.733Z,76.23
2022-12-13T16:39:34.299Z,76.24
2022-12-13T16:42:07.168Z,76.36
2022-12-13T16:44:40.979Z,76.12
2022-12-13T16:47:22.234Z,76.12
2022-12-13T16:50:04.078Z,76.16
2022-12-13T16:52:36.614Z,76.05
2022-12-13T16:55:12.565Z,75.93
2022-12-13T16:57:45.043Z,76.15
2022-12-13T17:00:20.406Z,76.06
2022-12-13T17:03:10.828Z,75.90
2022-12-13T17:05:45.422Z,76.02
2022-12-13T17:08:26.005Z,76.06
2022-12-13T17:11:06.956Z,75.69
2022-12-13T17:13:39.350Z,75.85
2022-12-13T17:16:12.361Z,75.56
2022-12-13T17:18:45.859Z,75.58
2022-12-13T17:21:18.300Z,75.55
2022-12-13T17:23:51.372Z,75.67
2022-12-13T17:26:31.408Z,75.73
2022-12-13T17:29:04.476Z,75.82
2022-12-13T17:31:37.536Z,75.73
2022-12-13T17:34:09.963Z,75.59
2022-12-13T17:36:43.626Z,75.46
2022-12-13T17:39:16.189Z,75.34
2022-12-13T17:41:54.921Z,75.40
2022-12-13T17:44:28.864Z,75.30
2022-12-13T17:47:03.527Z,75.25
2022-12-13T17:49:35.963Z,75.35
2022-12-13T17:52:09.131Z,75.35
2022-12-13T17:54:41.567Z,75.39
2022-12-13T17:57:14.431Z,75.15
2022-12-13T17:59:48.226Z,75.35
2022-12-13T18:02:23.149Z,75.54
2022-12-13T18:05:02.603Z,75.53
2022-12-13T18:07:35.378Z,75.39
2022-12-13T18:10:17.736Z,75.20
2022-12-13T18:12:50.176Z,75.07
2022-12-13T18:15:23.313Z,75.14
2022-12-13T18:18:12.888Z,75.18
2022-12-13T18:20:47.540Z,75.35
2022-12-13T18:23:21.320Z,75.22
2022-12-13T18:25:53.715Z,75.48
2022-12-13T18:28:26.181Z,75.88
2022-12-13T18:31:05.028Z,75.55
2022-12-13T18:33:38.332Z,75.94
2022-12-13T18:36:12.753Z,76.10
2022-12-13T18:38:45.788Z,76.26
2022-12-13T18:41:22.089Z,76.00
2022-12-13T18:44:02.915Z,76.12
2022-12-13T18:46:44.723Z,75.95
2022-12-13T18:49:18.946Z,76.12
2022-12-13T18:51:51.564Z,76.15
2022-12-13T18:54:26.123Z,75.81
2022-12-13T18:56:58.551Z,75.66
2022-12-13T18:59:33.304Z,75.77
2022-12-13T19:02:05.900Z,75.68
2022-12-13T19:04:38.480Z,75.80
2022-12-13T19:07:11.091Z,75.78
2022-12-13T19:09:43.697Z,75.99
2022-12-13T19:12:29.676Z,75.91
2022-12-13T19:15:05.146Z,75.75
2022-12-13T19:17:38.655Z,75.59
2022-12-13T19:20:20.791Z,75.71
2022-12-13T19:22:53.361Z,75.41
2022-12-13T19:25:25.827Z,75.55
2022-12-13T19:27:58.652Z,75.79
2022-12-13T19:30:31.794Z,75.88
2022-12-13T19:33:04.306Z,75.79
2022-12-13T19:35:36.975Z,75.81
2022-12-13T19:38:13.158Z,75.97
2022-12-13T19:40:45.604Z,75.75
2022-12-13T19:43:23.191Z,75.62
2022-12-13T19:45:56.019Z,75.23
2022-12-13T19:48:28.441Z,75.24
2022-12-13T19:51:08.192Z,75.24
2022-12-13T19:53:43.884Z,75.29
2022-12-13T19:56:18.986Z,75.04
2022-12-13T20:02:05.947Z,74.84
2022-12-13T20:04:38.796Z,74.96
2022-12-13T20:07:11.644Z,74.92
2022-12-13T20:09:43.883Z,74.98
2022-12-13T20:12:16.106Z,74.96
2022-12-13T20:14:48.317Z,74.81
2022-12-13T20:17:20.610Z,74.88
2022-12-13T20:19:55.736Z,74.71
2022-12-13T20:22:28.690Z,74.79
2022-12-13T20:25:00.940Z,74.68
2022-12-13T20:27:33.245Z,74.55
2022-12-13T20:30:08.547Z,74.65
2022-12-13T20:32:41.259Z,74.75
2022-12-13T20:35:13.732Z,74.67
2022-12-13T20:37:48.465Z,74.74
2022-12-13T20:40:26.024Z,75.07
2022-12-13T20:42:58.614Z,75.22
2022-12-13T20:45:30.858Z,75.22
2022-12-13T20:48:03.108Z,75.05
2022-12-13T20:50:35.712Z,75.09
2022-12-13T20:53:08.144Z,75.25
2022-12-13T20:55:40.757Z,75.77
2022-12-13T20:58:22.408Z,75.87
2022-12-13T21:00:55.052Z,76.33
2022-12-13T21:03:27.760Z,76.35
2022-12-13T21:06:00.442Z,76.42
2022-12-13T21:12:51.792Z,76.57
2022-12-13T21:15:24.123Z,77.03
2022-12-13T21:18:03.250Z,76.85
2022-12-13T21:20:35.565Z,77.01
2022-12-13T21:24:19.437Z,77.34
2022-12-13T21:26:52.338Z,77.22
2022-12-13T21:29:31.346Z,77.28
2022-12-13T21:32:03.664Z,77.25
2022-12-13T21:34:42.142Z,77.18
2022-12-13T21:37:14.596Z,77.12
2022-12-13T21:44:38.114Z,76.71
2022-12-13T21:59:22.883Z,76.68
2022-12-13T22:02:44.282Z,76.54
2022-12-13T22:06:13.150Z,76.35
2022-12-13T22:10:01.051Z,76.16
2022-12-13T22:12:41.961Z,75.70
2022-12-13T22:19:09.455Z,75.53
2022-12-13T22:21:44.626Z,75.43
2022-12-13T22:25:07.097Z,75.45
2022-12-13T22:28:12.479Z,75.46
2022-12-13T22:35:13.310Z,75.15
2022-12-13T22:38:34.549Z,74.98
2022-12-13T22:41:16.272Z,74.92
2022-12-13T22:44:35.638Z,74.86
2022-12-13T22:47:24.862Z,74.85
2022-12-13T22:58:57.681Z,74.57
2022-12-13T23:01:31.850Z,74.52
2022-12-13T23:04:04.752Z,74.59
2022-12-13T23:07:09.177Z,74.70
2022-12-13T23:15:30.388Z,75.06
2022-12-13T23:18:09.591Z,75.41
2022-12-13T23:20:41.959Z,75.72
2022-12-13T23:24:13.348Z,76.08
2022-12-13T23:26:45.956Z,76.05
2022-12-13T23:29:18.448Z,76.01
2022-12-13T23:40:54.952Z,76.09
2022-12-13T23:51:37.964Z,76.43
2022-12-13T23:56:02.400Z,76.59
